Arthur Maersk — OXJH2 — position and weather

sailwx.info

Track history (hours):
 
Tides and Currents Weather Stations Pressure Air Temp Water Temp Dewpoint Dewpoint Depression Visibility Wind Speed Wind Dir Waves Ship Positions

Arthur Maersk

Last reported at 2016-Nov-25 11:27 UTC. Time now 2016-Dec-10 08:57 UTC.
Position N 01°55' E 102°21'.
Warning: this ship's position is 14 days out of date.

Length 352 m; draft 12.7 m.

Type: Cargo ship. MMSI: 220221000.

Date/timePositionNaut miles runAvg speedWind from/ knotsBaromVisibWave heightAir tempDewpointWater temp
2016-Nov-25 11:27N 01°55' E 102°21'1516.9
2016-Nov-25 10:33N 01°48' E 102°34'7815.1
2016-Nov-25 05:23N 01°16' E 103°45'0 0.5
2016-Nov-25 04:33N 01°16' E 103°46'0 0.0
2016-Nov-25 03:33N 01°16' E 103°46'0 0.0
2016-Nov-25 02:33N 01°16' E 103°46'0 0.0
2016-Nov-25 01:33N 01°16' E 103°46'0 0.0
2016-Nov-25 00:30N 01°16' E 103°46'0 0.0
2016-Nov-24 23:33N 01°16' E 103°46'0 0.0
2016-Nov-24 22:33N 01°16' E 103°46'0 0.0
2016-Nov-24 21:27N 01°16' E 103°46'0 0.0
2016-Nov-24 20:21N 01°16' E 103°46'0 0.0
2016-Nov-24 19:18N 01°16' E 103°46'0 0.0
2016-Nov-24 18:21N 01°16' E 103°46'0 0.0
2016-Nov-24 17:21N 01°16' E 103°46'0 0.0
2016-Nov-24 16:33N 01°16' E 103°46'0 0.0
2016-Nov-24 15:21N 01°16' E 103°46'0 0.0
2016-Nov-24 14:27N 01°16' E 103°46'0 0.0
2016-Nov-24 13:21N 01°16' E 103°46'0 0.0
2016-Nov-24 12:33N 01°16' E 103°46'0 0.0
2016-Nov-24 11:27N 01°16' E 103°46'0 0.0
2016-Nov-24 10:33N 01°16' E 103°46'0 0.0
2016-Nov-24 09:33N 01°16' E 103°46'0 0.0
2016-Nov-24 08:33N 01°16' E 103°46'0 0.0
2016-Nov-24 07:33N 01°16' E 103°46'0 0.3
2016-Nov-24 06:33N 01°16' E 103°46'7 6.9
2016-Nov-24 05:32N 01°13' E 103°52'6 6.5
2016-Nov-24 04:33N 01°15' E 103°58'  
2016-Nov-19 14:27N 22°34' E 114°16'0 0.1
2016-Nov-19 11:15N 22°34' E 114°16'0 0.0
2016-Nov-19 04:32N 22°34' E 114°16'27519.1
2016-Nov-18 14:08N 22°15' E 119°12'3220.5
2016-Nov-18 12:33N 22°20' E 119°47'2121.1
2016-Nov-18 11:33N 22°29' E 120°07'12 6.0
2016-Nov-18 09:33N 22°33' E 120°20'0 0.0
2016-Nov-18 05:30N 22°33' E 120°20'0 0.0
2016-Nov-18 01:18N 22°33' E 120°20'0 0.0
2016-Nov-18 00:24N 22°33' E 120°20'0 0.2
2016-Nov-17 23:32N 22°33' E 120°19'7 7.2
2016-Nov-17 22:34N 22°32' E 120°12'1716.9
2016-Nov-17 21:34N 22°47' E 120°03'13016.2
2016-Nov-17 13:33N 24°13' E 118°17'1313.3
2016-Nov-17 12:33N 24°23' E 118°07'7 6.3
2016-Nov-17 11:29N 24°27' E 118°01'0 0.0
2016-Nov-17 08:31N 24°27' E 118°01'0 0.0
2016-Nov-17 06:32N 24°27' E 118°01'0 0.0
2016-Nov-17 02:32N 24°27' E 118°01'22 7.4
2016-Nov-16 23:33N 24°13' E 118°20'1212.1
2016-Nov-16 22:33N 24°14' E 118°33'4213.7
2016-Nov-16 19:29N 24°31' E 119°15'  
Track history (hours):
 
Tides and Currents Weather Stations Pressure Air Temp Water Temp Dewpoint Dewpoint Depression Visibility Wind Speed Wind Dir Waves Ship Positions

Arthur Maersk

Last reported at 2016-Nov-25 11:27 UTC. Time now 2016-Dec-10 08:57 UTC.
Position N 01°55' E 102°21'.
Warning: this ship's position is 14 days out of date.

Length 352 m; draft 12.7 m.

Type: Cargo ship. MMSI: 220221000.

Date/timePositionNaut miles runAvg speedWind from/ knotsBaromVisibWave heightAir tempDewpointWater temp
2016-Nov-25 11:27N 01°55' E 102°21'1516.9
2016-Nov-25 10:33N 01°48' E 102°34'7815.1
2016-Nov-25 05:23N 01°16' E 103°45'0 0.5
2016-Nov-25 04:33N 01°16' E 103°46'0 0.0
2016-Nov-25 03:33N 01°16' E 103°46'0 0.0
2016-Nov-25 02:33N 01°16' E 103°46'0 0.0
2016-Nov-25 01:33N 01°16' E 103°46'0 0.0
2016-Nov-25 00:30N 01°16' E 103°46'0 0.0
2016-Nov-24 23:33N 01°16' E 103°46'0 0.0
2016-Nov-24 22:33N 01°16' E 103°46'0 0.0
2016-Nov-24 21:27N 01°16' E 103°46'0 0.0
2016-Nov-24 20:21N 01°16' E 103°46'0 0.0
2016-Nov-24 19:18N 01°16' E 103°46'0 0.0
2016-Nov-24 18:21N 01°16' E 103°46'0 0.0
2016-Nov-24 17:21N 01°16' E 103°46'0 0.0
2016-Nov-24 16:33N 01°16' E 103°46'0 0.0
2016-Nov-24 15:21N 01°16' E 103°46'0 0.0
2016-Nov-24 14:27N 01°16' E 103°46'0 0.0
2016-Nov-24 13:21N 01°16' E 103°46'0 0.0
2016-Nov-24 12:33N 01°16' E 103°46'0 0.0
2016-Nov-24 11:27N 01°16' E 103°46'0 0.0
2016-Nov-24 10:33N 01°16' E 103°46'0 0.0
2016-Nov-24 09:33N 01°16' E 103°46'0 0.0
2016-Nov-24 08:33N 01°16' E 103°46'0 0.0
2016-Nov-24 07:33N 01°16' E 103°46'0 0.3
2016-Nov-24 06:33N 01°16' E 103°46'7 6.9
2016-Nov-24 05:32N 01°13' E 103°52'6 6.5
2016-Nov-24 04:33N 01°15' E 103°58'  
2016-Nov-19 14:27N 22°34' E 114°16'0 0.1
2016-Nov-19 11:15N 22°34' E 114°16'0 0.0
2016-Nov-19 04:32N 22°34' E 114°16'27519.1
2016-Nov-18 14:08N 22°15' E 119°12'3220.5
2016-Nov-18 12:33N 22°20' E 119°47'2121.1
2016-Nov-18 11:33N 22°29' E 120°07'12 6.0
2016-Nov-18 09:33N 22°33' E 120°20'0 0.0
2016-Nov-18 05:30N 22°33' E 120°20'0 0.0
2016-Nov-18 01:18N 22°33' E 120°20'0 0.0
2016-Nov-18 00:24N 22°33' E 120°20'0 0.2
2016-Nov-17 23:32N 22°33' E 120°19'7 7.2
2016-Nov-17 22:34N 22°32' E 120°12'1716.9
2016-Nov-17 21:34N 22°47' E 120°03'13016.2
2016-Nov-17 13:33N 24°13' E 118°17'1313.3
2016-Nov-17 12:33N 24°23' E 118°07'7 6.3
2016-Nov-17 11:29N 24°27' E 118°01'0 0.0
2016-Nov-17 08:31N 24°27' E 118°01'0 0.0
2016-Nov-17 06:32N 24°27' E 118°01'0 0.0
2016-Nov-17 02:32N 24°27' E 118°01'22 7.4
2016-Nov-16 23:33N 24°13' E 118°20'1212.1
2016-Nov-16 22:33N 24°14' E 118°33'4213.7
2016-Nov-16 19:29N 24°31' E 119°15'  

Dump ship's entire track history